Mendig, Germany

9:59 AM CET on January 27, 2015 (GMT +0100)
IRHEINLA25 | Change Station
CLOSE
Current Station
Personal Weather Station
Location: Ettringen, RHEINLAND-PFALZ
Elevation: 1312 ft
Nearby Weather Stations

Elev 1312 ft 50.36 °N, 7.22 °E | Updated 13 minutes ago

Rain
Rain
35.1 °F
Feels Like 35 °F
N
0.0
Wind Variable Wind from SW
Gusts 9.0 mph

Today
High -- | Low -- °F
--% Chance of Precip.
Yesterday
High -- | Low -- °F
Precip. -- in
8:12 AM 5:14 PM
First Quarter, 52% visible
Pressure 30.15 in
Visibility 3.1 miles
Clouds Mostly Cloudy 200 ft
Windchill 35 °F
Dew Point 33 °F
Humidity 92%
Rainfall 0.05 in
Snow Depth Not available.
UV 0 out of 12
Pollen Not available.
Air Quality Not available.
Flu Activity Not available.
METAR EDFH 270850Z 27010KT 5000 BR BKN002 M00/M00 Q1021

More Conditions Fewer Conditions

Pressure 30.15 in
Visibility 3.1 miles
Clouds Mostly Cloudy 200 ft
Windchill 35 °F
Dew Point 33 °F
Humidity 92%
Rainfall 0.05 in
Snow Depth Not available.
UV 0 out of 12
Pollen Not available.
Air Quality Not available.
Flu Activity Not available.
METAR EDFH 270850Z 27010KT 5000 BR BKN002 M00/M00 Q1021

More Conditions Fewer Conditions

10-Day Weather Forecast

Almanac

Astronomy

Jan. 27, 2015 Rise Set
Actual Time
Civil Twilight
Nautical Twilight
Astronomical Twilight
Moon
Length of Visible Light
Length of Day
Tomorrow will be .
, % of the Moon is Illuminated

Today's Extremes

Country Highs Country Lows

Community

WunderPhotos

Upload Photos

1,790,555 photos uploaded!

WunderBlogs® & News

Nearby

Air Quality

  Air Quality AQ Index Pollutant
Not available.

Snow Depth

Station Depth Elevation

Earthquake Activity

City Distance Mag. Time & Date
Minimum magnitude displayed is 2.5.

Coastal Water Temperatures

Place Temperature

Nearby Weather Stations